^^
Paulen-Weather Station Historical Data
Daily Summary for March 03, 2022 Units:  Metric    English   Both
Daily Weekly Monthly Yearly Custom
  High: Low: Average:
Temperature: 6 °C 1 °C 3.5 °C
Dew Point: 2 °C -1 °C 0.3 °C
Humidity: 90% 67% 79%
Wind Speed: 28km/h 4km/h 14.6km/h
Wind Gust: 25km/h - -
Wind- - ESE
Pressure: 1027.16 hPa 1025.26 hPa -
Precipitation: 0 mm    
Historical Graphs
 
 
Tabular Data for March 03, 2022
Time Temperature Dew Point Pressure Wind Wind Speed Wind Gust Humidity Rainfall Rate (Hourly) solar
00:04 2 °C 0 °C 1025.3 hPa N 11 km/h 11 km/h 82% 0 mm 0 W/m2
00:09 2 °C 0 °C 1025.3 hPa NNW 10 km/h 10 km/h 82% 0 mm 0 W/m2
00:14 2 °C 0 °C 1025.33 hPa NNW 12 km/h 11 km/h 83% 0 mm 0 W/m2
00:19 2 °C 0 °C 1025.33 hPa N 8 km/h 10 km/h 84% 0 mm 0 W/m2
00:24 2 °C 0 °C 1025.3 hPa N 7 km/h 6 km/h 85% 0 mm 0 W/m2
00:29 2 °C 0 °C 1025.3 hPa N 7 km/h 8 km/h 85% 0 mm 0 W/m2
00:34 2 °C 0 °C 1025.26 hPa N 8 km/h 8 km/h 85% 0 mm 0 W/m2
00:39 2 °C 0 °C 1025.36 hPa N 8 km/h 8 km/h 85% 0 mm 0 W/m2
00:44 2 °C 0 °C 1025.3 hPa N 8 km/h 9 km/h 84% 0 mm 0 W/m2
00:49 2 °C 0 °C 1025.33 hPa NNW 10 km/h 10 km/h 83% 0 mm 0 W/m2
00:54 2 °C 0 °C 1025.36 hPa N 9 km/h 8 km/h 84% 0 mm 0 W/m2
00:59 2 °C 0 °C 1025.3 hPa N 10 km/h 9 km/h 84% 0 mm 0 W/m2
01:04 2 °C 0 °C 1025.4 hPa N 8 km/h 8 km/h 84% 0 mm 0 W/m2
01:09 2 °C 0 °C 1025.4 hPa NNW 12 km/h 12 km/h 84% 0 mm 0 W/m2
01:14 2 °C 0 °C 1025.4 hPa N 13 km/h 12 km/h 83% 0 mm 0 W/m2
01:19 2 °C 0 °C 1025.57 hPa NNW 14 km/h 13 km/h 84% 0 mm 0 W/m2
01:24 2 °C 0 °C 1025.67 hPa NNW 11 km/h 11 km/h 84% 0 mm 0 W/m2
01:29 2 °C 0 °C 1025.67 hPa NNW 14 km/h 12 km/h 84% 0 mm 0 W/m2
01:34 2 °C 0 °C 1025.7 hPa NNW 12 km/h 12 km/h 83% 0 mm 0 W/m2
01:39 2 °C 0 °C 1025.74 hPa NNW 12 km/h 11 km/h 83% 0 mm 0 W/m2
01:44 2 °C 0 °C 1025.7 hPa NNW 12 km/h 11 km/h 83% 0 mm 0 W/m2
01:49 2 °C 0 °C 1025.67 hPa NNW 14 km/h 13 km/h 83% 0 mm 0 W/m2
01:54 2 °C 0 °C 1025.64 hPa NNW 14 km/h 13 km/h 83% 0 mm 0 W/m2
01:59 2 °C 0 °C 1025.64 hPa NNW 13 km/h 12 km/h 84% 0 mm 0 W/m2
02:04 2 °C 0 °C 1025.6 hPa NNW 13 km/h 12 km/h 84% 0 mm 0 W/m2
02:09 2 °C 0 °C 1025.6 hPa N 10 km/h 10 km/h 85% 0 mm 0 W/m2
02:14 2 °C 0 °C 1025.64 hPa N 9 km/h 8 km/h 86% 0 mm 0 W/m2
02:19 2 °C 0 °C 1025.64 hPa N 10 km/h 8 km/h 85% 0 mm 0 W/m2
02:24 2 °C 0 °C 1025.6 hPa N 10 km/h 9 km/h 85% 0 mm 0 W/m2
02:29 2 °C 0 °C 1025.64 hPa N 10 km/h 9 km/h 85% 0 mm 0 W/m2
02:34 2 °C 0 °C 1025.67 hPa N 9 km/h 9 km/h 85% 0 mm 0 W/m2
02:39 2 °C 0 °C 1025.67 hPa N 8 km/h 9 km/h 85% 0 mm 0 W/m2
02:44 2 °C 0 °C 1025.67 hPa N 12 km/h 13 km/h 85% 0 mm 0 W/m2
02:49 3 °C 0 °C 1025.74 hPa N 15 km/h 13 km/h 83% 0 mm 0 W/m2
02:54 3 °C 0 °C 1025.77 hPa N 16 km/h 14 km/h 80% 0 mm 0 W/m2
02:59 3 °C 0 °C 1025.67 hPa N 14 km/h 13 km/h 80% 0 mm 0 W/m2
03:04 3 °C 0 °C 1025.7 hPa N 12 km/h 9 km/h 80% 0 mm 0 W/m2
03:09 3 °C 0 °C 1025.64 hPa NNW 10 km/h 10 km/h 80% 0 mm 0 W/m2
03:14 2 °C 0 °C 1025.57 hPa N 13 km/h 13 km/h 82% 0 mm 0 W/m2
03:19 3 °C 0 °C 1025.57 hPa N 11 km/h 11 km/h 83% 0 mm 0 W/m2
03:24 2 °C 0 °C 1025.64 hPa N 8 km/h 9 km/h 83% 0 mm 0 W/m2
03:29 2 °C 0 °C 1025.67 hPa N 16 km/h 14 km/h 82% 0 mm 0 W/m2
03:34 3 °C 0 °C 1025.57 hPa N 12 km/h 12 km/h 82% 0 mm 0 W/m2
03:39 2 °C 0 °C 1025.57 hPa NNW 12 km/h 10 km/h 82% 0 mm 0 W/m2
03:44 2 °C 0 °C 1025.53 hPa N 16 km/h 16 km/h 81% 0 mm 0 W/m2
03:49 3 °C 0 °C 1025.47 hPa N 16 km/h 16 km/h 81% 0 mm 0 W/m2
03:54 3 °C 0 °C 1025.53 hPa N 11 km/h 10 km/h 80% 0 mm 0 W/m2
03:59 3 °C 0 °C 1025.53 hPa N 13 km/h 13 km/h 80% 0 mm 0 W/m2
04:04 3 °C 0 °C 1025.47 hPa N 12 km/h 9 km/h 81% 0 mm 0 W/m2
04:09 2 °C 0 °C 1025.47 hPa N 12 km/h 12 km/h 81% 0 mm 0 W/m2
04:14 3 °C 0 °C 1025.43 hPa N 15 km/h 13 km/h 81% 0 mm 0 W/m2
04:19 3 °C 0 °C 1025.36 hPa N 19 km/h 17 km/h 80% 0 mm 0 W/m2
04:24 3 °C 0 °C 1025.4 hPa N 16 km/h 15 km/h 81% 0 mm 0 W/m2
04:29 3 °C 0 °C 1025.43 hPa N 15 km/h 14 km/h 80% 0 mm 0 W/m2
04:34 3 °C 0 °C 1025.4 hPa N 16 km/h 13 km/h 79% 0 mm 0 W/m2
04:39 3 °C 0 °C 1025.4 hPa N 15 km/h 15 km/h 79% 0 mm 0 W/m2
04:44 3 °C 0 °C 1025.36 hPa N 17 km/h 16 km/h 78% 0 mm 0 W/m2
04:49 3 °C -1 °C 1025.4 hPa N 19 km/h 17 km/h 77% 0 mm 0 W/m2
04:54 3 °C -1 °C 1025.43 hPa N 19 km/h 17 km/h 77% 0 mm 0 W/m2
04:59 3 °C -1 °C 1025.36 hPa N 18 km/h 16 km/h 77% 0 mm 0 W/m2
05:04 3 °C -1 °C 1025.43 hPa N 16 km/h 15 km/h 77% 0 mm 0 W/m2
05:09 3 °C -1 °C 1025.4 hPa N 15 km/h 14 km/h 76% 0 mm 0 W/m2
05:14 3 °C -1 °C 1025.36 hPa N 16 km/h 16 km/h 76% 0 mm 0 W/m2
05:19 3 °C -1 °C 1025.36 hPa N 17 km/h 15 km/h 77% 0 mm 0 W/m2
05:24 3 °C -1 °C 1025.43 hPa N 16 km/h 14 km/h 77% 0 mm 0 W/m2
05:29 3 °C -1 °C 1025.43 hPa N 18 km/h 17 km/h 76% 0 mm 0 W/m2
05:34 3 °C -1 °C 1025.36 hPa N 18 km/h 17 km/h 76% 0 mm 0 W/m2
05:39 3 °C -1 °C 1025.4 hPa N 15 km/h 14 km/h 78% 0 mm 0 W/m2
05:44 3 °C -1 °C 1025.36 hPa N 15 km/h 13 km/h 78% 0 mm 0 W/m2
05:49 3 °C -1 °C 1025.36 hPa N 11 km/h 11 km/h 79% 0 mm 0 W/m2
05:54 3 °C -1 °C 1025.36 hPa NNW 13 km/h 12 km/h 79% 0 mm 0 W/m2
05:59 3 °C -1 °C 1025.33 hPa N 11 km/h 10 km/h 78% 0 mm 0 W/m2
06:04 3 °C -1 °C 1025.36 hPa N 13 km/h 10 km/h 78% 0 mm 0 W/m2
06:09 3 °C -1 °C 1025.36 hPa N 10 km/h 9 km/h 78% 0 mm 0 W/m2
06:14 3 °C -1 °C 1025.3 hPa N 13 km/h 13 km/h 77% 0 mm 0 W/m2
06:19 3 °C -1 °C 1025.33 hPa N 13 km/h 13 km/h 77% 0 mm 0 W/m2
06:24 3 °C -1 °C 1025.36 hPa N 12 km/h 11 km/h 77% 0 mm 0 W/m2
06:29 3 °C -1 °C 1025.36 hPa N 16 km/h 14 km/h 77% 0 mm 0 W/m2
06:34 3 °C -1 °C 1025.43 hPa N 13 km/h 12 km/h 77% 0 mm 0 W/m2
06:39 3 °C -1 °C 1025.4 hPa N 16 km/h 14 km/h 77% 0 mm 0 W/m2
06:44 3 °C -1 °C 1025.47 hPa N 16 km/h 13 km/h 76% 0 mm 0 W/m2
06:49 3 °C -1 °C 1025.47 hPa N 15 km/h 13 km/h 75% 0 mm 0 W/m2
06:54 3 °C -1 °C 1025.43 hPa N 15 km/h 14 km/h 74% 0 mm 0 W/m2
06:59 3 °C -1 °C 1025.5 hPa N 16 km/h 13 km/h 74% 0 mm 0 W/m2
07:04 3 °C -1 °C 1025.6 hPa N 16 km/h 14 km/h 75% 0 mm 0 W/m2
07:09 3 °C -1 °C 1025.57 hPa N 15 km/h 13 km/h 75% 0 mm 0 W/m2
07:14 3 °C -1 °C 1025.7 hPa N 15 km/h 12 km/h 78% 0 mm 5 W/m2
07:19 3 °C 0 °C 1025.74 hPa N 17 km/h 13 km/h 79% 0 mm 9 W/m2
07:24 3 °C 0 °C 1025.77 hPa N 15 km/h 14 km/h 79% 0 mm 12 W/m2
07:29 3 °C 0 °C 1025.97 hPa N 16 km/h 13 km/h 78% 0 mm 19 W/m2
07:34 3 °C 0 °C 1025.97 hPa N 15 km/h 15 km/h 78% 0 mm 26 W/m2
07:39 3 °C 0 °C 1025.87 hPa N 17 km/h 14 km/h 79% 0 mm 33 W/m2
07:44 3 °C 0 °C 1025.94 hPa N 15 km/h 13 km/h 80% 0 mm 40 W/m2
07:49 3 °C -1 °C 1025.94 hPa N 15 km/h 11 km/h 80% 0 mm 51 W/m2
07:54 3 °C -1 °C 1025.97 hPa N 15 km/h 13 km/h 80% 0 mm 58 W/m2
07:59 3 °C 0 °C 1026.04 hPa N 13 km/h 11 km/h 80% 0 mm 67 W/m2
08:04 3 °C 0 °C 1026.01 hPa N 15 km/h 12 km/h 80% 0 mm 76 W/m2
08:09 3 °C 0 °C 1026.01 hPa N 16 km/h 13 km/h 79% 0 mm 84 W/m2
08:14 3 °C -1 °C 1026.14 hPa N 13 km/h 11 km/h 79% 0 mm 91 W/m2
08:19 3 °C -1 °C 1026.18 hPa N 15 km/h 12 km/h 78% 0 mm 102 W/m2
08:24 3 °C 0 °C 1026.14 hPa N 13 km/h 12 km/h 78% 0 mm 111 W/m2
08:29 3 °C 0 °C 1026.31 hPa N 14 km/h 12 km/h 77% 0 mm 118 W/m2
08:34 3 °C -1 °C 1026.31 hPa N 14 km/h 12 km/h 76% 0 mm 128 W/m2
08:39 3 °C -1 °C 1026.31 hPa N 14 km/h 12 km/h 75% 0 mm 137 W/m2
08:44 3 °C -1 °C 1026.38 hPa N 12 km/h 10 km/h 75% 0 mm 146 W/m2
08:49 3 °C -1 °C 1026.35 hPa N 9 km/h 8 km/h 76% 0 mm 156 W/m2
08:54 3 °C 0 °C 1026.38 hPa N 10 km/h 8 km/h 76% 0 mm 163 W/m2
08:59 3 °C 0 °C 1026.38 hPa NNE 11 km/h 11 km/h 76% 0 mm 174 W/m2
09:04 4 °C 0 °C 1026.41 hPa NNE 11 km/h 9 km/h 76% 0 mm 183 W/m2
09:09 4 °C 0 °C 1026.41 hPa NNE 16 km/h 14 km/h 76% 0 mm 192 W/m2
09:14 4 °C 0 °C 1026.38 hPa NNE 18 km/h 15 km/h 74% 0 mm 200 W/m2
09:19 5 °C 0 °C 1026.41 hPa NNE 22 km/h 22 km/h 73% 0 mm 211 W/m2
09:24 5 °C 0 °C 1026.38 hPa NNE 24 km/h 22 km/h 72% 0 mm 220 W/m2
09:29 5 °C 0 °C 1026.45 hPa NNE 24 km/h 21 km/h 71% 0 mm 229 W/m2
09:34 5 °C 0 °C 1026.48 hPa NNE 24 km/h 22 km/h 71% 0 mm 237 W/m2
09:39 5 °C 0 °C 1026.48 hPa NNE 25 km/h 22 km/h 71% 0 mm 246 W/m2
09:44 5 °C 0 °C 1026.52 hPa NNE 23 km/h 18 km/h 72% 0 mm 253 W/m2
09:49 5 °C 0 °C 1026.48 hPa NNE 24 km/h 21 km/h 72% 0 mm 262 W/m2
09:54 5 °C 0 °C 1026.62 hPa NNE 20 km/h 19 km/h 72% 0 mm 271 W/m2
09:59 5 °C 0 °C 1026.69 hPa NNE 20 km/h 15 km/h 71% 0 mm 278 W/m2
10:04 5 °C 0 °C 1026.69 hPa NE 25 km/h 25 km/h 71% 0 mm 287 W/m2
10:09 5 °C 0 °C 1026.79 hPa NNE 28 km/h 24 km/h 71% 0 mm 294 W/m2
10:14 5 °C 0 °C 1026.79 hPa NNE 25 km/h 22 km/h 71% 0 mm 301 W/m2
10:19 5 °C 1 °C 1026.85 hPa NE 24 km/h 18 km/h 71% 0 mm 309 W/m2
10:24 5 °C 0 °C 1026.79 hPa NNE 24 km/h 20 km/h 71% 0 mm 316 W/m2
10:29 5 °C 0 °C 1026.85 hPa NE 28 km/h 23 km/h 70% 0 mm 322 W/m2
10:34 5 °C 0 °C 1026.89 hPa NE 28 km/h 23 km/h 69% 0 mm 329 W/m2
10:39 5 °C 0 °C 1026.92 hPa NNE 25 km/h 20 km/h 69% 0 mm 336 W/m2
10:44 5 °C 0 °C 1026.92 hPa NE 25 km/h 20 km/h 69% 0 mm 341 W/m2
10:49 5 °C 0 °C 1026.99 hPa NE 27 km/h 20 km/h 68% 0 mm 346 W/m2
10:54 5 °C 0 °C 1026.99 hPa ENE 24 km/h 19 km/h 67% 0 mm 353 W/m2
10:59 5 °C 0 °C 1026.85 hPa NE 22 km/h 18 km/h 68% 0 mm 357 W/m2
11:04 5 °C 0 °C 1026.89 hPa NE 21 km/h 19 km/h 68% 0 mm 364 W/m2
11:09 6 °C 0 °C 1026.85 hPa NE 20 km/h 17 km/h 69% 0 mm 367 W/m2
11:14 6 °C 0 °C 1026.92 hPa ENE 21 km/h 18 km/h 68% 0 mm 373 W/m2
11:19 6 °C 0 °C 1026.85 hPa NE 18 km/h 16 km/h 69% 0 mm 378 W/m2
11:24 6 °C 0 °C 1026.92 hPa NE 17 km/h 15 km/h 69% 0 mm 381 W/m2
11:29 6 °C 1 °C 1026.89 hPa NE 19 km/h 16 km/h 69% 0 mm 385 W/m2
11:34 6 °C 0 °C 1026.92 hPa NE 20 km/h 16 km/h 68% 0 mm 390 W/m2
11:39 6 °C 0 °C 1026.89 hPa NE 19 km/h 15 km/h 68% 0 mm 392 W/m2
11:44 6 °C 0 °C 1026.85 hPa NNE 21 km/h 16 km/h 68% 0 mm 396 W/m2
11:49 6 °C 0 °C 1026.96 hPa NNE 21 km/h 17 km/h 67% 0 mm 399 W/m2
11:54 6 °C 0 °C 1026.99 hPa NE 21 km/h 16 km/h 67% 0 mm 401 W/m2
11:59 6 °C 0 °C 1027.02 hPa NE 19 km/h 16 km/h 68% 0 mm 403 W/m2
12:04 6 °C 0 °C 1027.02 hPa NNE 19 km/h 15 km/h 67% 0 mm 404 W/m2
12:09 6 °C 0 °C 1027.13 hPa ENE 20 km/h 15 km/h 67% 0 mm 406 W/m2
12:14 6 °C 0 °C 1027.13 hPa NE 19 km/h 14 km/h 68% 0 mm 408 W/m2
12:19 6 °C 0 °C 1027.16 hPa ENE 17 km/h 13 km/h 68% 0 mm 410 W/m2
12:24 6 °C 0 °C 1027.09 hPa ENE 18 km/h 15 km/h 69% 0 mm 410 W/m2
12:29 6 °C 0 °C 1027.09 hPa ENE 21 km/h 16 km/h 69% 0 mm 410 W/m2
12:34 6 °C 1 °C 1027.06 hPa ENE 18 km/h 13 km/h 69% 0 mm 411 W/m2
12:39 6 °C 0 °C 1027.02 hPa ENE 18 km/h 13 km/h 69% 0 mm 411 W/m2
12:44 6 °C 0 °C 1027.06 hPa E 20 km/h 18 km/h 67% 0 mm 411 W/m2
12:49 6 °C 0 °C 1027.13 hPa E 20 km/h 18 km/h 67% 0 mm 411 W/m2
12:54 6 °C 0 °C 1027.09 hPa E 21 km/h 19 km/h 67% 0 mm 410 W/m2
12:59 5 °C 0 °C 1027.09 hPa ENE 21 km/h 19 km/h 68% 0 mm 410 W/m2
13:04 5 °C 0 °C 1027.09 hPa E 22 km/h 19 km/h 69% 0 mm 408 W/m2
13:09 5 °C 0 °C 1027.06 hPa ENE 20 km/h 19 km/h 69% 0 mm 406 W/m2
13:14 5 °C 0 °C 1027.06 hPa ENE 20 km/h 18 km/h 69% 0 mm 404 W/m2
13:19 5 °C 1 °C 1026.96 hPa NE 18 km/h 15 km/h 70% 0 mm 403 W/m2
13:24 5 °C 1 °C 1026.92 hPa ENE 20 km/h 17 km/h 71% 0 mm 401 W/m2
13:29 5 °C 1 °C 1026.92 hPa ENE 21 km/h 18 km/h 71% 0 mm 401 W/m2
13:34 6 °C 1 °C 1026.92 hPa E 18 km/h 14 km/h 70% 0 mm 396 W/m2
13:39 5 °C 1 °C 1026.85 hPa ENE 21 km/h 19 km/h 70% 0 mm 394 W/m2
13:44 6 °C 1 °C 1026.82 hPa NE 18 km/h 15 km/h 71% 0 mm 390 W/m2
13:49 5 °C 1 °C 1026.82 hPa ENE 20 km/h 17 km/h 71% 0 mm 387 W/m2
13:54 5 °C 1 °C 1026.85 hPa ENE 22 km/h 19 km/h 71% 0 mm 381 W/m2
13:59 5 °C 1 °C 1026.79 hPa E 23 km/h 17 km/h 73% 0 mm 378 W/m2
14:04 5 °C 1 °C 1026.75 hPa ENE 21 km/h 16 km/h 73% 0 mm 374 W/m2
14:09 5 °C 1 °C 1026.75 hPa ENE 18 km/h 15 km/h 75% 0 mm 369 W/m2
14:14 5 °C 1 °C 1026.75 hPa E 20 km/h 18 km/h 74% 0 mm 364 W/m2
14:19 5 °C 1 °C 1026.79 hPa E 19 km/h 16 km/h 74% 0 mm 360 W/m2
14:24 5 °C 1 °C 1026.72 hPa E 20 km/h 19 km/h 74% 0 mm 355 W/m2
14:29 5 °C 1 °C 1026.58 hPa E 19 km/h 16 km/h 74% 0 mm 350 W/m2
14:34 5 °C 1 °C 1026.58 hPa E 18 km/h 16 km/h 74% 0 mm 343 W/m2
14:39 5 °C 1 °C 1026.62 hPa E 17 km/h 14 km/h 75% 0 mm 336 W/m2
14:44 5 °C 1 °C 1026.62 hPa E 18 km/h 15 km/h 75% 0 mm 330 W/m2
14:49 5 °C 1 °C 1026.48 hPa ENE 17 km/h 14 km/h 75% 0 mm 323 W/m2
14:54 5 °C 1 °C 1026.55 hPa E 18 km/h 15 km/h 75% 0 mm 316 W/m2
14:59 5 °C 1 °C 1026.52 hPa E 16 km/h 13 km/h 75% 0 mm 311 W/m2
15:04 5 °C 1 °C 1026.55 hPa ESE 14 km/h 10 km/h 76% 0 mm 302 W/m2
15:09 5 °C 1 °C 1026.52 hPa ESE 14 km/h 12 km/h 75% 0 mm 295 W/m2
15:14 5 °C 1 °C 1026.52 hPa ENE 13 km/h 11 km/h 76% 0 mm 288 W/m2
15:19 5 °C 1 °C 1026.48 hPa E 11 km/h 12 km/h 76% 0 mm 281 W/m2
15:24 5 °C 1 °C 1026.45 hPa E 15 km/h 13 km/h 77% 0 mm 272 W/m2
15:29 5 °C 1 °C 1026.41 hPa E 14 km/h 12 km/h 77% 0 mm 265 W/m2
15:34 5 °C 2 °C 1026.38 hPa ESE 12 km/h 10 km/h 77% 0 mm 257 W/m2
15:39 5 °C 2 °C 1026.28 hPa E 13 km/h 10 km/h 77% 0 mm 248 W/m2
15:44 5 °C 2 °C 1026.31 hPa E 12 km/h 9 km/h 78% 0 mm 241 W/m2
15:49 5 °C 1 °C 1026.28 hPa E 14 km/h 10 km/h 77% 0 mm 232 W/m2
15:54 5 °C 1 °C 1026.28 hPa E 10 km/h 11 km/h 77% 0 mm 221 W/m2
15:59 5 °C 1 °C 1026.25 hPa E 13 km/h 14 km/h 77% 0 mm 214 W/m2
16:04 5 °C 2 °C 1026.25 hPa E 14 km/h 12 km/h 78% 0 mm 206 W/m2
16:09 5 °C 2 °C 1026.21 hPa E 15 km/h 11 km/h 78% 0 mm 197 W/m2
16:14 5 °C 2 °C 1026.14 hPa E 13 km/h 13 km/h 78% 0 mm 186 W/m2
16:19 5 °C 1 °C 1026.14 hPa E 16 km/h 13 km/h 78% 0 mm 179 W/m2
16:24 5 °C 2 °C 1025.97 hPa ENE 15 km/h 12 km/h 79% 0 mm 169 W/m2
16:29 5 °C 2 °C 1026.01 hPa E 15 km/h 11 km/h 79% 0 mm 160 W/m2
16:34 5 °C 2 °C 1026.11 hPa E 15 km/h 13 km/h 79% 0 mm 151 W/m2
16:39 5 °C 2 °C 1026.11 hPa E 14 km/h 13 km/h 80% 0 mm 142 W/m2
16:44 5 °C 2 °C 1026.11 hPa E 15 km/h 12 km/h 80% 0 mm 39 W/m2
16:49 5 °C 2 °C 1026.14 hPa ENE 14 km/h 11 km/h 80% 0 mm 54 W/m2
16:54 5 °C 2 °C 1026.08 hPa ENE 14 km/h 11 km/h 80% 0 mm 37 W/m2
16:59 5 °C 1 °C 1026.08 hPa E 13 km/h 9 km/h 80% 0 mm 67 W/m2
17:04 5 °C 2 °C 1026.08 hPa E 12 km/h 11 km/h 80% 0 mm 83 W/m2
17:09 5 °C 2 °C 1026.04 hPa E 11 km/h 9 km/h 80% 0 mm 30 W/m2
17:14 5 °C 2 °C 1026.11 hPa E 14 km/h 10 km/h 80% 0 mm 33 W/m2
17:19 5 °C 2 °C 1026.08 hPa E 11 km/h 9 km/h 81% 0 mm 35 W/m2
17:24 5 °C 2 °C 1026.08 hPa E 13 km/h 12 km/h 81% 0 mm 33 W/m2
17:29 4 °C 1 °C 1026.08 hPa E 14 km/h 11 km/h 81% 0 mm 40 W/m2
17:34 4 °C 1 °C 1026.04 hPa ENE 15 km/h 13 km/h 81% 0 mm 18 W/m2
17:39 4 °C 2 °C 1026.11 hPa ESE 10 km/h 9 km/h 82% 0 mm 16 W/m2
17:44 4 °C 2 °C 1026.11 hPa E 12 km/h 9 km/h 82% 0 mm 14 W/m2
17:49 4 °C 2 °C 1026.11 hPa ESE 8 km/h 6 km/h 82% 0 mm 12 W/m2
17:54 4 °C 2 °C 1026.14 hPa E 9 km/h 8 km/h 83% 0 mm 11 W/m2
17:59 4 °C 2 °C 1026.18 hPa E 10 km/h 8 km/h 83% 0 mm 9 W/m2
18:04 4 °C 2 °C 1026.18 hPa E 7 km/h 6 km/h 83% 0 mm 7 W/m2
18:09 4 °C 2 °C 1026.18 hPa ESE 8 km/h 6 km/h 83% 0 mm 5 W/m2
18:14 4 °C 2 °C 1026.11 hPa E 9 km/h 9 km/h 84% 0 mm 0 W/m2
18:19 4 °C 2 °C 1026.21 hPa E 7 km/h 4 km/h 84% 0 mm 0 W/m2
18:24 4 °C 2 °C 1026.21 hPa ESE 6 km/h 4 km/h 84% 0 mm 0 W/m2
18:29 4 °C 2 °C 1026.14 hPa E 6 km/h 4 km/h 84% 0 mm 0 W/m2
18:34 4 °C 2 °C 1026.21 hPa ESE 6 km/h 5 km/h 84% 0 mm 0 W/m2
18:39 4 °C 2 °C 1026.21 hPa ESE 5 km/h 2 km/h 85% 0 mm 0 W/m2
18:44 4 °C 2 °C 1026.35 hPa ESE 5 km/h 4 km/h 85% 0 mm 0 W/m2
18:49 4 °C 2 °C 1026.41 hPa ESE 5 km/h 4 km/h 85% 0 mm 0 W/m2
18:54 4 °C 2 °C 1026.48 hPa ESE 4 km/h 3 km/h 86% 0 mm 0 W/m2
18:59 4 °C 2 °C 1026.48 hPa ESE 4 km/h 4 km/h 86% 0 mm 0 W/m2
19:04 4 °C 2 °C 1026.52 hPa ESE 6 km/h 4 km/h 86% 0 mm 0 W/m2
19:09 4 °C 2 °C 1026.52 hPa ENE 5 km/h 5 km/h 86% 0 mm 0 W/m2
19:14 4 °C 1 °C 1026.52 hPa N 6 km/h 6 km/h 86% 0 mm 0 W/m2
19:19 3 °C 1 °C 1026.55 hPa N 8 km/h 8 km/h 86% 0 mm 0 W/m2
19:24 3 °C 1 °C 1026.55 hPa NNE 9 km/h 8 km/h 86% 0 mm 0 W/m2
19:29 3 °C 1 °C 1026.55 hPa N 8 km/h 8 km/h 85% 0 mm 0 W/m2
19:34 3 °C 1 °C 1026.55 hPa N 9 km/h 9 km/h 86% 0 mm 0 W/m2
19:39 3 °C 1 °C 1026.52 hPa N 11 km/h 11 km/h 86% 0 mm 0 W/m2
19:44 3 °C 1 °C 1026.52 hPa N 12 km/h 11 km/h 86% 0 mm 0 W/m2
19:49 3 °C 1 °C 1026.58 hPa N 12 km/h 12 km/h 86% 0 mm 0 W/m2
19:54 3 °C 1 °C 1026.62 hPa N 13 km/h 13 km/h 87% 0 mm 0 W/m2
19:59 3 °C 1 °C 1026.65 hPa N 15 km/h 13 km/h 87% 0 mm 0 W/m2
20:04 3 °C 1 °C 1026.62 hPa N 17 km/h 15 km/h 88% 0 mm 0 W/m2
20:09 2 °C 1 °C 1026.55 hPa N 17 km/h 14 km/h 88% 0 mm 0 W/m2
20:14 2 °C 1 °C 1026.52 hPa N 17 km/h 15 km/h 88% 0 mm 0 W/m2
20:19 2 °C 0 °C 1026.48 hPa N 18 km/h 16 km/h 88% 0 mm 0 W/m2
20:24 2 °C 0 °C 1026.52 hPa N 18 km/h 17 km/h 88% 0 mm 0 W/m2
20:29 2 °C 0 °C 1026.45 hPa N 17 km/h 13 km/h 88% 0 mm 0 W/m2
20:34 2 °C 1 °C 1026.48 hPa N 18 km/h 15 km/h 89% 0 mm 0 W/m2
20:39 2 °C 1 °C 1026.45 hPa N 17 km/h 15 km/h 89% 0 mm 0 W/m2
20:44 2 °C 0 °C 1026.52 hPa N 16 km/h 15 km/h 88% 0 mm 0 W/m2
20:49 2 °C 0 °C 1026.52 hPa N 18 km/h 15 km/h 89% 0 mm 0 W/m2
20:54 2 °C 0 °C 1026.48 hPa N 16 km/h 14 km/h 89% 0 mm 0 W/m2
20:59 2 °C 0 °C 1026.48 hPa N 15 km/h 14 km/h 89% 0 mm 0 W/m2
21:04 2 °C 0 °C 1026.48 hPa N 15 km/h 14 km/h 90% 0 mm 0 W/m2
21:09 2 °C 0 °C 1026.41 hPa N 16 km/h 14 km/h 89% 0 mm 0 W/m2
21:14 2 °C 0 °C 1026.45 hPa N 16 km/h 14 km/h 89% 0 mm 0 W/m2
21:19 2 °C 0 °C 1026.38 hPa N 14 km/h 14 km/h 89% 0 mm 0 W/m2
21:24 2 °C 0 °C 1026.38 hPa N 17 km/h 15 km/h 89% 0 mm 0 W/m2
21:29 2 °C 0 °C 1026.35 hPa N 17 km/h 15 km/h 89% 0 mm 0 W/m2
21:34 2 °C 0 °C 1026.28 hPa N 18 km/h 15 km/h 88% 0 mm 0 W/m2
21:39 2 °C 0 °C 1026.31 hPa N 16 km/h 14 km/h 87% 0 mm 0 W/m2
21:44 2 °C 0 °C 1026.31 hPa N 13 km/h 12 km/h 87% 0 mm 0 W/m2
21:49 2 °C 0 °C 1026.38 hPa N 14 km/h 12 km/h 87% 0 mm 0 W/m2
21:54 2 °C 0 °C 1026.45 hPa N 15 km/h 13 km/h 88% 0 mm 0 W/m2
21:59 2 °C 0 °C 1026.45 hPa N 12 km/h 11 km/h 88% 0 mm 0 W/m2
22:04 2 °C 0 °C 1026.52 hPa N 11 km/h 10 km/h 88% 0 mm 0 W/m2
22:09 1 °C 0 °C 1026.52 hPa N 11 km/h 10 km/h 89% 0 mm 0 W/m2
22:14 1 °C 0 °C 1026.55 hPa N 10 km/h 9 km/h 89% 0 mm 0 W/m2
22:19 1 °C 0 °C 1026.55 hPa N 12 km/h 12 km/h 88% 0 mm 0 W/m2
22:24 1 °C 0 °C 1026.55 hPa N 12 km/h 13 km/h 88% 0 mm 0 W/m2
22:29 2 °C 0 °C 1026.55 hPa N 14 km/h 13 km/h 87% 0 mm 0 W/m2
22:34 2 °C 0 °C 1026.58 hPa N 11 km/h 9 km/h 87% 0 mm 0 W/m2
22:39 2 °C 0 °C 1026.55 hPa N 12 km/h 11 km/h 87% 0 mm 0 W/m2
22:44 2 °C 0 °C 1026.52 hPa N 12 km/h 11 km/h 87% 0 mm 0 W/m2
22:49 2 °C 0 °C 1026.52 hPa N 12 km/h 11 km/h 87% 0 mm 0 W/m2
22:54 1 °C -1 °C 1026.55 hPa N 13 km/h 10 km/h 87% 0 mm 0 W/m2
22:59 1 °C -1 °C 1026.58 hPa N 13 km/h 11 km/h 87% 0 mm 0 W/m2
23:04 1 °C 0 °C 1026.62 hPa N 9 km/h 9 km/h 87% 0 mm 0 W/m2
23:09 1 °C -1 °C 1026.58 hPa N 10 km/h 8 km/h 87% 0 mm 0 W/m2
23:14 1 °C -1 °C 1026.65 hPa N 10 km/h 8 km/h 87% 0 mm 0 W/m2
23:19 1 °C -1 °C 1026.65 hPa N 9 km/h 9 km/h 87% 0 mm 0 W/m2
23:24 1 °C -1 °C 1026.79 hPa N 8 km/h 7 km/h 87% 0 mm 0 W/m2
23:29 1 °C -1 °C 1026.82 hPa N 6 km/h 5 km/h 87% 0 mm 0 W/m2
23:34 1 °C -1 °C 1026.85 hPa N 7 km/h 7 km/h 88% 0 mm 0 W/m2
23:39 1 °C -1 °C 1026.92 hPa N 8 km/h 6 km/h 88% 0 mm 0 W/m2
23:44 1 °C -1 °C 1026.92 hPa N 8 km/h 7 km/h 88% 0 mm 0 W/m2
23:49 1 °C -1 °C 1027.06 hPa N 8 km/h 7 km/h 88% 0 mm 0 W/m2
23:54 1 °C -1 °C 1027.02 hPa N 7 km/h 7 km/h 88% 0 mm 0 W/m2
23:59 1 °C -1 °C 1027.13 hPa N 8 km/h 6 km/h 87% 0 mm 0 W/m2
Compliments of Weather Underground - 2 mb